sensor_id;sensor_type;location;lat;lon;timestamp;P1;durP1;ratioP1;P2;durP2;ratioP2
70707;SDS011;58277;47.316;18.908;2022-10-17T00:01:09;34.65;;;16.23;;
70707;SDS011;58277;47.316;18.908;2022-10-17T00:03:33;35.28;;;16.10;;
70707;SDS011;58277;47.316;18.908;2022-10-17T00:05:57;35.33;;;17.13;;
70707;SDS011;58277;47.316;18.908;2022-10-17T00:08:20;35.25;;;16.70;;
70707;SDS011;58277;47.316;18.908;2022-10-17T00:10:43;35.00;;;16.17;;
70707;SDS011;58277;47.316;18.908;2022-10-17T00:13:06;32.88;;;16.80;;
70707;SDS011;58277;47.316;18.908;2022-10-17T00:15:29;32.28;;;16.70;;
70707;SDS011;58277;47.316;18.908;2022-10-17T00:17:52;33.42;;;16.27;;
70707;SDS011;58277;47.316;18.908;2022-10-17T00:20:15;32.35;;;15.45;;
70707;SDS011;58277;47.316;18.908;2022-10-17T00:22:38;33.58;;;17.00;;
70707;SDS011;58277;47.316;18.908;2022-10-17T00:25:01;28.90;;;15.32;;
70707;SDS011;58277;47.316;18.908;2022-10-17T00:27:24;32.47;;;16.73;;
70707;SDS011;58277;47.316;18.908;2022-10-17T00:29:48;32.15;;;16.58;;
70707;SDS011;58277;47.316;18.908;2022-10-17T00:32:11;33.75;;;16.05;;
70707;SDS011;58277;47.316;18.908;2022-10-17T00:34:33;29.35;;;15.82;;
70707;SDS011;58277;47.316;18.908;2022-10-17T00:36:56;33.42;;;16.45;;
70707;SDS011;58277;47.316;18.908;2022-10-17T00:39:19;30.95;;;15.95;;
70707;SDS011;58277;47.316;18.908;2022-10-17T00:41:42;30.98;;;16.42;;
70707;SDS011;58277;47.316;18.908;2022-10-17T00:46:52;33.20;;;16.10;;
70707;SDS011;58277;47.316;18.908;2022-10-17T00:49:15;33.20;;;16.05;;
70707;SDS011;58277;47.316;18.908;2022-10-17T00:51:42;30.77;;;15.70;;
70707;SDS011;58277;47.316;18.908;2022-10-17T00:54:10;31.27;;;16.05;;
70707;SDS011;58277;47.316;18.908;2022-10-17T00:56:34;34.70;;;16.00;;
70707;SDS011;58277;47.316;18.908;2022-10-17T00:58:58;29.52;;;15.32;;
70707;SDS011;58277;47.316;18.908;2022-10-17T01:01:21;29.90;;;15.60;;
70707;SDS011;58277;47.316;18.908;2022-10-17T01:03:44;32.08;;;15.85;;
70707;SDS011;58277;47.316;18.908;2022-10-17T01:06:10;30.15;;;15.27;;
70707;SDS011;58277;47.316;18.908;2022-10-17T01:08:32;32.60;;;15.50;;
70707;SDS011;58277;47.316;18.908;2022-10-17T01:13:29;32.90;;;15.93;;
70707;SDS011;58277;47.316;18.908;2022-10-17T01:16:10;31.08;;;15.98;;
70707;SDS011;58277;47.316;18.908;2022-10-17T01:21:31;30.20;;;15.38;;
70707;SDS011;58277;47.316;18.908;2022-10-17T01:32:31;33.25;;;15.50;;
70707;SDS011;58277;47.316;18.908;2022-10-17T01:35:03;30.80;;;15.00;;
70707;SDS011;58277;47.316;18.908;2022-10-17T01:37:45;30.55;;;16.08;;
70707;SDS011;58277;47.316;18.908;2022-10-17T01:40:27;29.85;;;15.13;;
70707;SDS011;58277;47.316;18.908;2022-10-17T01:45:47;32.63;;;14.73;;
70707;SDS011;58277;47.316;18.908;2022-10-17T01:48:16;31.65;;;16.10;;
70707;SDS011;58277;47.316;18.908;2022-10-17T01:50:50;32.75;;;15.48;;
70707;SDS011;58277;47.316;18.908;2022-10-17T01:53:28;31.50;;;15.63;;
70707;SDS011;58277;47.316;18.908;2022-10-17T01:55:56;30.23;;;14.55;;
70707;SDS011;58277;47.316;18.908;2022-10-17T01:58:30;31.83;;;15.93;;
70707;SDS011;58277;47.316;18.908;2022-10-17T02:00:55;29.67;;;15.15;;
70707;SDS011;58277;47.316;18.908;2022-10-17T02:03:25;29.95;;;15.15;;
70707;SDS011;58277;47.316;18.908;2022-10-17T02:05:49;30.35;;;15.23;;
70707;SDS011;58277;47.316;18.908;2022-10-17T02:08:13;31.02;;;15.27;;
70707;SDS011;58277;47.316;18.908;2022-10-17T02:10:49;29.02;;;15.05;;
70707;SDS011;58277;47.316;18.908;2022-10-17T02:13:23;28.02;;;15.05;;
70707;SDS011;58277;47.316;18.908;2022-10-17T02:25:08;29.10;;;14.98;;
70707;SDS011;58277;47.316;18.908;2022-10-17T02:33:38;28.02;;;14.00;;
70707;SDS011;58277;47.316;18.908;2022-10-17T02:36:04;29.73;;;13.93;;
70707;SDS011;58277;47.316;18.908;2022-10-17T02:38:30;30.65;;;14.07;;
70707;SDS011;58277;47.316;18.908;2022-10-17T02:40:55;31.08;;;14.73;;
70707;SDS011;58277;47.316;18.908;2022-10-17T02:43:18;29.05;;;14.07;;
70707;SDS011;58277;47.316;18.908;2022-10-17T02:45:43;27.77;;;14.27;;
70707;SDS011;58277;47.316;18.908;2022-10-17T02:48:08;26.52;;;14.13;;
70707;SDS011;58277;47.316;18.908;2022-10-17T02:50:39;30.40;;;14.30;;
70707;SDS011;58277;47.316;18.908;2022-10-17T02:53:24;29.52;;;14.70;;
70707;SDS011;58277;47.316;18.908;2022-10-17T02:55:55;30.48;;;14.65;;
70707;SDS011;58277;47.316;18.908;2022-10-17T02:58:23;31.27;;;14.75;;
70707;SDS011;58277;47.316;18.908;2022-10-17T03:00:50;28.55;;;13.80;;
70707;SDS011;58277;47.316;18.908;2022-10-17T03:03:18;32.33;;;14.38;;
70707;SDS011;58277;47.316;18.908;2022-10-17T03:05:55;28.27;;;14.00;;
70707;SDS011;58277;47.316;18.908;2022-10-17T03:08:20;26.83;;;14.00;;
70707;SDS011;58277;47.316;18.908;2022-10-17T03:10:43;30.35;;;14.48;;
70707;SDS011;58277;47.316;18.908;2022-10-17T03:13:06;28.55;;;14.40;;
70707;SDS011;58277;47.316;18.908;2022-10-17T03:15:32;30.30;;;15.05;;
70707;SDS011;58277;47.316;18.908;2022-10-17T03:17:55;28.38;;;13.93;;
70707;SDS011;58277;47.316;18.908;2022-10-17T03:20:18;28.63;;;14.38;;
70707;SDS011;58277;47.316;18.908;2022-10-17T03:22:40;29.38;;;14.20;;
70707;SDS011;58277;47.316;18.908;2022-10-17T03:25:04;28.55;;;14.00;;
70707;SDS011;58277;47.316;18.908;2022-10-17T03:27:29;28.10;;;14.50;;
70707;SDS011;58277;47.316;18.908;2022-10-17T03:29:53;30.02;;;14.80;;
70707;SDS011;58277;47.316;18.908;2022-10-17T03:32:15;28.15;;;14.48;;
70707;SDS011;58277;47.316;18.908;2022-10-17T03:34:38;29.13;;;14.40;;
70707;SDS011;58277;47.316;18.908;2022-10-17T03:37:01;31.55;;;14.23;;
70707;SDS011;58277;47.316;18.908;2022-10-17T03:39:25;27.85;;;14.02;;
70707;SDS011;58277;47.316;18.908;2022-10-17T03:41:48;29.17;;;14.52;;
70707;SDS011;58277;47.316;18.908;2022-10-17T03:44:11;30.05;;;13.93;;
70707;SDS011;58277;47.316;18.908;2022-10-17T03:46:33;25.65;;;13.48;;
70707;SDS011;58277;47.316;18.908;2022-10-17T03:48:56;27.65;;;14.43;;
70707;SDS011;58277;47.316;18.908;2022-10-17T03:51:19;28.30;;;13.55;;
70707;SDS011;58277;47.316;18.908;2022-10-17T03:53:46;30.02;;;14.50;;
70707;SDS011;58277;47.316;18.908;2022-10-17T03:56:10;30.05;;;14.82;;
70707;SDS011;58277;47.316;18.908;2022-10-17T03:58:37;29.88;;;14.35;;
70707;SDS011;58277;47.316;18.908;2022-10-17T04:01:04;30.92;;;15.50;;
70707;SDS011;58277;47.316;18.908;2022-10-17T04:03:31;29.95;;;14.80;;
70707;SDS011;58277;47.316;18.908;2022-10-17T04:05:57;29.58;;;14.80;;
70707;SDS011;58277;47.316;18.908;2022-10-17T04:08:21;28.10;;;14.38;;
70707;SDS011;58277;47.316;18.908;2022-10-17T04:11:06;30.17;;;14.15;;
70707;SDS011;58277;47.316;18.908;2022-10-17T04:13:29;31.33;;;14.90;;
70707;SDS011;58277;47.316;18.908;2022-10-17T04:15:53;28.15;;;14.15;;
70707;SDS011;58277;47.316;18.908;2022-10-17T04:18:20;28.85;;;13.88;;
70707;SDS011;58277;47.316;18.908;2022-10-17T04:20:43;26.10;;;13.63;;
70707;SDS011;58277;47.316;18.908;2022-10-17T04:23:05;31.83;;;14.18;;
70707;SDS011;58277;47.316;18.908;2022-10-17T04:25:28;28.55;;;14.15;;
70707;SDS011;58277;47.316;18.908;2022-10-17T04:27:57;28.27;;;13.93;;
70707;SDS011;58277;47.316;18.908;2022-10-17T04:30:19;27.35;;;13.98;;
70707;SDS011;58277;47.316;18.908;2022-10-17T04:32:42;26.25;;;13.80;;
70707;SDS011;58277;47.316;18.908;2022-10-17T04:35:14;28.57;;;14.57;;
70707;SDS011;58277;47.316;18.908;2022-10-17T04:37:41;26.38;;;14.00;;
70707;SDS011;58277;47.316;18.908;2022-10-17T04:40:10;29.42;;;13.88;;
70707;SDS011;58277;47.316;18.908;2022-10-17T04:42:33;29.40;;;14.02;;
70707;SDS011;58277;47.316;18.908;2022-10-17T04:44:56;31.38;;;14.85;;
70707;SDS011;58277;47.316;18.908;2022-10-17T04:47:20;29.75;;;13.85;;
70707;SDS011;58277;47.316;18.908;2022-10-17T04:49:43;30.58;;;13.45;;
70707;SDS011;58277;47.316;18.908;2022-10-17T04:52:09;26.00;;;13.65;;
70707;SDS011;58277;47.316;18.908;2022-10-17T04:54:35;27.85;;;13.95;;
70707;SDS011;58277;47.316;18.908;2022-10-17T04:57:02;30.77;;;13.70;;
70707;SDS011;58277;47.316;18.908;2022-10-17T04:59:24;27.55;;;13.75;;
70707;SDS011;58277;47.316;18.908;2022-10-17T05:01:58;27.30;;;13.75;;
70707;SDS011;58277;47.316;18.908;2022-10-17T05:04:21;26.25;;;12.90;;
70707;SDS011;58277;47.316;18.908;2022-10-17T05:06:47;25.98;;;13.18;;
70707;SDS011;58277;47.316;18.908;2022-10-17T05:09:26;27.58;;;13.50;;
70707;SDS011;58277;47.316;18.908;2022-10-17T05:11:49;29.67;;;13.63;;
70707;SDS011;58277;47.316;18.908;2022-10-17T05:14:12;27.75;;;13.02;;
70707;SDS011;58277;47.316;18.908;2022-10-17T05:16:36;26.67;;;13.57;;
70707;SDS011;58277;47.316;18.908;2022-10-17T05:18:59;28.58;;;12.50;;
70707;SDS011;58277;47.316;18.908;2022-10-17T05:21:29;30.13;;;12.68;;
70707;SDS011;58277;47.316;18.908;2022-10-17T05:23:58;24.90;;;12.82;;
70707;SDS011;58277;47.316;18.908;2022-10-17T05:26:21;27.42;;;13.30;;
70707;SDS011;58277;47.316;18.908;2022-10-17T05:28:45;27.05;;;13.50;;
70707;SDS011;58277;47.316;18.908;2022-10-17T05:31:09;28.77;;;13.45;;
70707;SDS011;58277;47.316;18.908;2022-10-17T05:33:32;29.00;;;13.43;;
70707;SDS011;58277;47.316;18.908;2022-10-17T05:35:56;26.23;;;12.80;;
70707;SDS011;58277;47.316;18.908;2022-10-17T05:38:19;33.08;;;14.07;;
70707;SDS011;58277;47.316;18.908;2022-10-17T05:40:44;23.70;;;12.68;;
70707;SDS011;58277;47.316;18.908;2022-10-17T05:43:07;27.88;;;14.05;;
70707;SDS011;58277;47.316;18.908;2022-10-17T05:45:30;28.35;;;13.85;;
70707;SDS011;58277;47.316;18.908;2022-10-17T05:47:53;32.08;;;14.73;;
70707;SDS011;58277;47.316;18.908;2022-10-17T05:50:17;32.00;;;15.15;;
70707;SDS011;58277;47.316;18.908;2022-10-17T05:53:01;32.65;;;14.88;;
70707;SDS011;58277;47.316;18.908;2022-10-17T05:55:24;28.95;;;14.60;;
70707;SDS011;58277;47.316;18.908;2022-10-17T05:57:49;30.70;;;14.13;;
70707;SDS011;58277;47.316;18.908;2022-10-17T06:00:14;29.48;;;14.40;;
70707;SDS011;58277;47.316;18.908;2022-10-17T06:02:38;28.95;;;14.23;;
70707;SDS011;58277;47.316;18.908;2022-10-17T06:05:01;32.10;;;13.90;;
70707;SDS011;58277;47.316;18.908;2022-10-17T06:07:24;27.13;;;14.20;;
70707;SDS011;58277;47.316;18.908;2022-10-17T06:09:47;26.45;;;13.02;;
70707;SDS011;58277;47.316;18.908;2022-10-17T06:12:10;24.40;;;13.45;;
70707;SDS011;58277;47.316;18.908;2022-10-17T06:14:32;28.17;;;12.93;;
70707;SDS011;58277;47.316;18.908;2022-10-17T06:16:57;29.02;;;13.90;;
70707;SDS011;58277;47.316;18.908;2022-10-17T06:19:23;24.67;;;12.85;;
70707;SDS011;58277;47.316;18.908;2022-10-17T06:21:45;29.75;;;15.70;;
70707;SDS011;58277;47.316;18.908;2022-10-17T06:24:12;37.72;;;17.55;;
70707;SDS011;58277;47.316;18.908;2022-10-17T06:26:36;35.30;;;17.23;;
70707;SDS011;58277;47.316;18.908;2022-10-17T06:29:02;31.65;;;15.45;;
70707;SDS011;58277;47.316;18.908;2022-10-17T06:31:29;31.38;;;14.02;;
70707;SDS011;58277;47.316;18.908;2022-10-17T06:33:52;26.92;;;13.88;;
70707;SDS011;58277;47.316;18.908;2022-10-17T06:36:14;24.35;;;12.95;;
70707;SDS011;58277;47.316;18.908;2022-10-17T06:38:39;28.70;;;14.48;;
70707;SDS011;58277;47.316;18.908;2022-10-17T06:41:12;30.08;;;13.82;;
70707;SDS011;58277;47.316;18.908;2022-10-17T06:43:36;38.38;;;16.83;;
70707;SDS011;58277;47.316;18.908;2022-10-17T06:46:34;38.28;;;16.70;;
70707;SDS011;58277;47.316;18.908;2022-10-17T06:48:59;31.02;;;14.27;;
70707;SDS011;58277;47.316;18.908;2022-10-17T06:51:37;26.25;;;13.40;;
70707;SDS011;58277;47.316;18.908;2022-10-17T06:54:03;27.35;;;13.75;;
70707;SDS011;58277;47.316;18.908;2022-10-17T06:57:04;43.67;;;15.25;;
70707;SDS011;58277;47.316;18.908;2022-10-17T06:59:45;25.10;;;13.00;;
70707;SDS011;58277;47.316;18.908;2022-10-17T07:02:20;23.00;;;11.93;;
70707;SDS011;58277;47.316;18.908;2022-10-17T07:04:46;38.45;;;14.10;;
70707;SDS011;58277;47.316;18.908;2022-10-17T07:07:09;26.25;;;13.70;;
70707;SDS011;58277;47.316;18.908;2022-10-17T07:09:32;27.70;;;14.35;;
70707;SDS011;58277;47.316;18.908;2022-10-17T07:11:55;26.95;;;13.73;;
70707;SDS011;58277;47.316;18.908;2022-10-17T07:14:18;27.80;;;13.18;;
70707;SDS011;58277;47.316;18.908;2022-10-17T07:16:41;26.85;;;13.52;;
70707;SDS011;58277;47.316;18.908;2022-10-17T07:19:13;26.05;;;13.55;;
70707;SDS011;58277;47.316;18.908;2022-10-17T07:21:36;28.05;;;13.75;;
70707;SDS011;58277;47.316;18.908;2022-10-17T07:24:02;25.05;;;14.07;;
70707;SDS011;58277;47.316;18.908;2022-10-17T07:26:25;27.23;;;14.88;;
70707;SDS011;58277;47.316;18.908;2022-10-17T07:28:50;25.13;;;14.55;;
70707;SDS011;58277;47.316;18.908;2022-10-17T07:31:25;26.50;;;14.82;;
70707;SDS011;58277;47.316;18.908;2022-10-17T07:33:48;26.75;;;14.25;;
70707;SDS011;58277;47.316;18.908;2022-10-17T07:36:12;25.10;;;14.65;;
70707;SDS011;58277;47.316;18.908;2022-10-17T07:38:35;27.08;;;14.25;;
70707;SDS011;58277;47.316;18.908;2022-10-17T07:41:00;23.10;;;13.55;;
70707;SDS011;58277;47.316;18.908;2022-10-17T07:43:25;22.88;;;13.88;;
70707;SDS011;58277;47.316;18.908;2022-10-17T07:45:48;22.30;;;12.57;;
70707;SDS011;58277;47.316;18.908;2022-10-17T07:48:11;23.05;;;12.85;;
70707;SDS011;58277;47.316;18.908;2022-10-17T07:50:34;22.33;;;12.70;;
70707;SDS011;58277;47.316;18.908;2022-10-17T07:52:57;25.52;;;13.05;;
70707;SDS011;58277;47.316;18.908;2022-10-17T07:55:20;24.05;;;13.05;;
70707;SDS011;58277;47.316;18.908;2022-10-17T07:57:43;24.48;;;14.05;;
70707;SDS011;58277;47.316;18.908;2022-10-17T08:00:06;28.20;;;13.65;;
70707;SDS011;58277;47.316;18.908;2022-10-17T08:02:38;26.83;;;13.45;;
70707;SDS011;58277;47.316;18.908;2022-10-17T08:05:01;25.02;;;13.40;;
70707;SDS011;58277;47.316;18.908;2022-10-17T08:07:24;24.88;;;12.18;;
70707;SDS011;58277;47.316;18.908;2022-10-17T08:09:51;22.75;;;12.55;;
70707;SDS011;58277;47.316;18.908;2022-10-17T08:12:14;23.35;;;12.30;;
70707;SDS011;58277;47.316;18.908;2022-10-17T08:14:37;21.52;;;11.75;;
70707;SDS011;58277;47.316;18.908;2022-10-17T08:17:01;23.63;;;11.77;;
70707;SDS011;58277;47.316;18.908;2022-10-17T08:19:23;24.25;;;11.60;;
70707;SDS011;58277;47.316;18.908;2022-10-17T08:21:46;21.10;;;11.43;;
70707;SDS011;58277;47.316;18.908;2022-10-17T08:24:11;21.65;;;11.70;;
70707;SDS011;58277;47.316;18.908;2022-10-17T08:26:34;22.55;;;12.07;;
70707;SDS011;58277;47.316;18.908;2022-10-17T08:29:03;30.02;;;12.10;;
70707;SDS011;58277;47.316;18.908;2022-10-17T08:31:26;26.65;;;13.10;;
70707;SDS011;58277;47.316;18.908;2022-10-17T08:33:49;27.30;;;12.57;;
70707;SDS011;58277;47.316;18.908;2022-10-17T08:36:13;22.23;;;11.32;;
70707;SDS011;58277;47.316;18.908;2022-10-17T08:38:36;21.45;;;10.90;;
70707;SDS011;58277;47.316;18.908;2022-10-17T08:44:32;20.80;;;11.00;;
70707;SDS011;58277;47.316;18.908;2022-10-17T08:46:41;20.08;;;11.13;;
70707;SDS011;58277;47.316;18.908;2022-10-17T08:49:09;20.48;;;10.95;;
70707;SDS011;58277;47.316;18.908;2022-10-17T08:51:36;22.08;;;11.23;;
70707;SDS011;58277;47.316;18.908;2022-10-17T08:54:10;19.35;;;11.25;;
70707;SDS011;58277;47.316;18.908;2022-10-17T08:56:49;19.40;;;10.82;;
70707;SDS011;58277;47.316;18.908;2022-10-17T08:59:17;22.23;;;10.77;;
70707;SDS011;58277;47.316;18.908;2022-10-17T09:10:30;19.40;;;10.48;;
70707;SDS011;58277;47.316;18.908;2022-10-17T09:18:30;20.38;;;10.65;;
70707;SDS011;58277;47.316;18.908;2022-10-17T09:21:03;18.17;;;10.00;;
70707;SDS011;58277;47.316;18.908;2022-10-17T09:23:59;21.38;;;9.80;;
70707;SDS011;58277;47.316;18.908;2022-10-17T09:26:38;18.95;;;10.48;;
70707;SDS011;58277;47.316;18.908;2022-10-17T09:29:02;18.80;;;9.95;;
70707;SDS011;58277;47.316;18.908;2022-10-17T09:31:33;18.48;;;9.73;;
70707;SDS011;58277;47.316;18.908;2022-10-17T09:34:23;24.15;;;9.80;;
70707;SDS011;58277;47.316;18.908;2022-10-17T09:36:49;19.15;;;9.98;;
70707;SDS011;58277;47.316;18.908;2022-10-17T09:39:19;15.32;;;8.98;;
70707;SDS011;58277;47.316;18.908;2022-10-17T09:41:48;16.60;;;9.15;;
70707;SDS011;58277;47.316;18.908;2022-10-17T09:44:14;17.88;;;9.73;;
70707;SDS011;58277;47.316;18.908;2022-10-17T09:46:39;20.00;;;9.60;;
70707;SDS011;58277;47.316;18.908;2022-10-17T09:49:14;19.42;;;10.25;;
70707;SDS011;58277;47.316;18.908;2022-10-17T09:51:41;16.30;;;9.00;;
70707;SDS011;58277;47.316;18.908;2022-10-17T09:54:04;18.23;;;8.90;;
70707;SDS011;58277;47.316;18.908;2022-10-17T09:59:35;17.80;;;8.63;;
70707;SDS011;58277;47.316;18.908;2022-10-17T10:02:25;14.30;;;8.25;;
70707;SDS011;58277;47.316;18.908;2022-10-17T10:07:35;14.32;;;7.80;;
70707;SDS011;58277;47.316;18.908;2022-10-17T10:10:01;12.18;;;7.43;;
70707;SDS011;58277;47.316;18.908;2022-10-17T10:12:28;16.25;;;7.70;;
70707;SDS011;58277;47.316;18.908;2022-10-17T10:14:53;15.93;;;7.78;;
70707;SDS011;58277;47.316;18.908;2022-10-17T10:19:57;15.30;;;7.70;;
70707;SDS011;58277;47.316;18.908;2022-10-17T10:22:21;15.27;;;7.43;;
70707;SDS011;58277;47.316;18.908;2022-10-17T10:24:47;13.50;;;7.28;;
70707;SDS011;58277;47.316;18.908;2022-10-17T10:27:29;14.43;;;7.70;;
70707;SDS011;58277;47.316;18.908;2022-10-17T10:29:51;15.05;;;6.95;;
70707;SDS011;58277;47.316;18.908;2022-10-17T10:32:17;11.63;;;7.50;;
70707;SDS011;58277;47.316;18.908;2022-10-17T10:37:20;14.15;;;7.10;;
70707;SDS011;58277;47.316;18.908;2022-10-17T10:40:14;12.77;;;7.30;;
70707;SDS011;58277;47.316;18.908;2022-10-17T10:42:38;11.70;;;7.00;;
70707;SDS011;58277;47.316;18.908;2022-10-17T10:45:15;14.68;;;7.25;;
70707;SDS011;58277;47.316;18.908;2022-10-17T10:47:57;13.43;;;6.95;;
70707;SDS011;58277;47.316;18.908;2022-10-17T10:55:48;13.68;;;6.80;;
70707;SDS011;58277;47.316;18.908;2022-10-17T10:58:57;12.75;;;6.72;;
70707;SDS011;58277;47.316;18.908;2022-10-17T11:01:05;13.15;;;6.85;;
70707;SDS011;58277;47.316;18.908;2022-10-17T11:03:40;10.48;;;6.50;;
70707;SDS011;58277;47.316;18.908;2022-10-17T11:06:27;10.27;;;6.55;;
70707;SDS011;58277;47.316;18.908;2022-10-17T11:08:59;12.80;;;6.72;;
70707;SDS011;58277;47.316;18.908;2022-10-17T11:11:37;10.95;;;6.05;;
70707;SDS011;58277;47.316;18.908;2022-10-17T11:14:31;9.05;;;6.28;;
70707;SDS011;58277;47.316;18.908;2022-10-17T11:17:04;11.05;;;6.68;;
70707;SDS011;58277;47.316;18.908;2022-10-17T11:19:41;11.23;;;6.82;;
70707;SDS011;58277;47.316;18.908;2022-10-17T11:22:18;10.82;;;6.75;;
70707;SDS011;58277;47.316;18.908;2022-10-17T11:27:54;11.35;;;6.63;;
70707;SDS011;58277;47.316;18.908;2022-10-17T11:30:17;13.73;;;6.65;;
70707;SDS011;58277;47.316;18.908;2022-10-17T11:32:43;11.05;;;6.35;;
70707;SDS011;58277;47.316;18.908;2022-10-17T11:35:23;14.73;;;7.07;;
70707;SDS011;58277;47.316;18.908;2022-10-17T11:37:51;11.18;;;6.25;;
70707;SDS011;58277;47.316;18.908;2022-10-17T11:40:54;9.82;;;6.38;;
70707;SDS011;58277;47.316;18.908;2022-10-17T11:45:39;17.50;;;6.88;;
70707;SDS011;58277;47.316;18.908;2022-10-17T11:48:13;11.20;;;5.88;;
70707;SDS011;58277;47.316;18.908;2022-10-17T11:51:01;9.15;;;6.10;;
70707;SDS011;58277;47.316;18.908;2022-10-17T11:56:44;12.05;;;6.00;;
70707;SDS011;58277;47.316;18.908;2022-10-17T12:02:18;8.40;;;5.18;;
70707;SDS011;58277;47.316;18.908;2022-10-17T12:04:59;10.82;;;5.38;;
70707;SDS011;58277;47.316;18.908;2022-10-17T12:07:47;10.90;;;5.00;;
70707;SDS011;58277;47.316;18.908;2022-10-17T12:10:39;10.45;;;5.43;;
70707;SDS011;58277;47.316;18.908;2022-10-17T12:15:49;7.88;;;5.43;;
70707;SDS011;58277;47.316;18.908;2022-10-17T12:18:15;7.47;;;4.93;;
70707;SDS011;58277;47.316;18.908;2022-10-17T12:20:38;11.20;;;5.20;;
70707;SDS011;58277;47.316;18.908;2022-10-17T12:23:03;10.38;;;5.30;;
70707;SDS011;58277;47.316;18.908;2022-10-17T12:25:47;8.88;;;4.90;;
70707;SDS011;58277;47.316;18.908;2022-10-17T12:28:47;8.73;;;5.03;;
70707;SDS011;58277;47.316;18.908;2022-10-17T12:33:51;10.50;;;5.20;;
70707;SDS011;58277;47.316;18.908;2022-10-17T12:38:39;9.68;;;5.10;;
70707;SDS011;58277;47.316;18.908;2022-10-17T12:41:03;9.20;;;5.80;;
70707;SDS011;58277;47.316;18.908;2022-10-17T12:45:59;8.88;;;5.38;;
70707;SDS011;58277;47.316;18.908;2022-10-17T12:51:07;7.63;;;5.10;;
70707;SDS011;58277;47.316;18.908;2022-10-17T12:54:10;9.07;;;5.00;;
70707;SDS011;58277;47.316;18.908;2022-10-17T12:56:37;9.52;;;5.22;;
70707;SDS011;58277;47.316;18.908;2022-10-17T12:59:12;7.90;;;4.95;;
70707;SDS011;58277;47.316;18.908;2022-10-17T13:01:44;9.48;;;4.82;;
70707;SDS011;58277;47.316;18.908;2022-10-17T13:04:09;9.15;;;5.43;;
70707;SDS011;58277;47.316;18.908;2022-10-17T13:06:33;11.38;;;4.97;;
70707;SDS011;58277;47.316;18.908;2022-10-17T13:09:03;8.20;;;5.25;;
70707;SDS011;58277;47.316;18.908;2022-10-17T13:11:28;8.00;;;4.75;;
70707;SDS011;58277;47.316;18.908;2022-10-17T13:13:53;9.75;;;4.93;;
70707;SDS011;58277;47.316;18.908;2022-10-17T13:16:34;7.93;;;5.10;;
70707;SDS011;58277;47.316;18.908;2022-10-17T13:19:02;11.55;;;5.40;;
70707;SDS011;58277;47.316;18.908;2022-10-17T13:21:36;8.73;;;5.07;;
70707;SDS011;58277;47.316;18.908;2022-10-17T13:23:58;11.65;;;5.28;;
70707;SDS011;58277;47.316;18.908;2022-10-17T13:26:26;12.57;;;6.20;;
70707;SDS011;58277;47.316;18.908;2022-10-17T13:28:59;9.90;;;5.35;;
70707;SDS011;58277;47.316;18.908;2022-10-17T13:33:57;10.70;;;5.40;;
70707;SDS011;58277;47.316;18.908;2022-10-17T13:36:22;13.70;;;5.20;;
70707;SDS011;58277;47.316;18.908;2022-10-17T13:38:45;11.25;;;4.93;;
70707;SDS011;58277;47.316;18.908;2022-10-17T13:41:12;10.40;;;6.18;;
70707;SDS011;58277;47.316;18.908;2022-10-17T13:43:55;11.93;;;5.63;;
70707;SDS011;58277;47.316;18.908;2022-10-17T13:46:29;12.57;;;5.10;;
70707;SDS011;58277;47.316;18.908;2022-10-17T13:49:07;10.45;;;5.32;;
70707;SDS011;58277;47.316;18.908;2022-10-17T13:51:40;10.30;;;5.68;;
70707;SDS011;58277;47.316;18.908;2022-10-17T13:54:16;12.00;;;5.40;;
70707;SDS011;58277;47.316;18.908;2022-10-17T13:56:54;9.48;;;5.22;;
70707;SDS011;58277;47.316;18.908;2022-10-17T13:59:21;12.20;;;5.40;;
70707;SDS011;58277;47.316;18.908;2022-10-17T14:01:46;11.80;;;5.32;;
70707;SDS011;58277;47.316;18.908;2022-10-17T14:04:10;12.75;;;5.70;;
70707;SDS011;58277;47.316;18.908;2022-10-17T14:06:42;8.15;;;5.30;;
70707;SDS011;58277;47.316;18.908;2022-10-17T14:09:30;8.77;;;5.25;;
70707;SDS011;58277;47.316;18.908;2022-10-17T14:12:00;11.38;;;5.13;;
70707;SDS011;58277;47.316;18.908;2022-10-17T14:14:23;10.65;;;5.07;;
70707;SDS011;58277;47.316;18.908;2022-10-17T14:16:47;9.25;;;4.95;;
70707;SDS011;58277;47.316;18.908;2022-10-17T14:21:53;8.18;;;5.03;;
70707;SDS011;58277;47.316;18.908;2022-10-17T14:27:01;10.25;;;5.05;;
70707;SDS011;58277;47.316;18.908;2022-10-17T14:31:55;8.20;;;4.70;;
70707;SDS011;58277;47.316;18.908;2022-10-17T14:34:21;7.22;;;4.38;;
70707;SDS011;58277;47.316;18.908;2022-10-17T14:36:47;9.35;;;5.03;;
70707;SDS011;58277;47.316;18.908;2022-10-17T14:39:21;10.55;;;4.88;;
70707;SDS011;58277;47.316;18.908;2022-10-17T14:41:45;8.15;;;4.80;;
70707;SDS011;58277;47.316;18.908;2022-10-17T14:44:17;11.27;;;4.53;;
70707;SDS011;58277;47.316;18.908;2022-10-17T14:46:45;9.20;;;4.60;;
70707;SDS011;58277;47.316;18.908;2022-10-17T14:49:31;9.70;;;4.20;;
70707;SDS011;58277;47.316;18.908;2022-10-17T14:54:47;11.77;;;4.45;;
70707;SDS011;58277;47.316;18.908;2022-10-17T14:57:14;7.47;;;4.38;;
70707;SDS011;58277;47.316;18.908;2022-10-17T14:59:51;7.55;;;4.50;;
70707;SDS011;58277;47.316;18.908;2022-10-17T15:02:16;9.75;;;4.47;;
70707;SDS011;58277;47.316;18.908;2022-10-17T15:04:39;11.05;;;5.10;;
70707;SDS011;58277;47.316;18.908;2022-10-17T15:07:02;15.52;;;4.45;;
70707;SDS011;58277;47.316;18.908;2022-10-17T15:09:25;9.30;;;4.68;;
70707;SDS011;58277;47.316;18.908;2022-10-17T15:11:49;9.10;;;4.38;;
70707;SDS011;58277;47.316;18.908;2022-10-17T15:14:12;11.23;;;4.90;;
70707;SDS011;58277;47.316;18.908;2022-10-17T15:16:34;11.50;;;4.38;;
70707;SDS011;58277;47.316;18.908;2022-10-17T15:18:58;7.80;;;4.25;;
70707;SDS011;58277;47.316;18.908;2022-10-17T15:21:23;9.10;;;4.72;;
70707;SDS011;58277;47.316;18.908;2022-10-17T15:24:00;12.48;;;5.32;;
70707;SDS011;58277;47.316;18.908;2022-10-17T15:26:23;9.57;;;4.85;;
70707;SDS011;58277;47.316;18.908;2022-10-17T15:28:48;11.68;;;4.60;;
70707;SDS011;58277;47.316;18.908;2022-10-17T15:31:12;9.57;;;4.95;;
70707;SDS011;58277;47.316;18.908;2022-10-17T15:33:36;9.80;;;4.82;;
70707;SDS011;58277;47.316;18.908;2022-10-17T15:35:58;9.05;;;4.80;;
70707;SDS011;58277;47.316;18.908;2022-10-17T15:38:21;8.90;;;4.88;;
70707;SDS011;58277;47.316;18.908;2022-10-17T15:40:44;8.90;;;5.10;;
70707;SDS011;58277;47.316;18.908;2022-10-17T15:43:10;9.88;;;5.18;;
70707;SDS011;58277;47.316;18.908;2022-10-17T15:45:32;8.05;;;4.60;;
70707;SDS011;58277;47.316;18.908;2022-10-17T15:47:56;10.93;;;5.13;;
70707;SDS011;58277;47.316;18.908;2022-10-17T15:50:23;11.02;;;5.45;;
70707;SDS011;58277;47.316;18.908;2022-10-17T15:52:47;10.70;;;5.10;;
70707;SDS011;58277;47.316;18.908;2022-10-17T15:55:12;9.35;;;5.18;;
70707;SDS011;58277;47.316;18.908;2022-10-17T15:57:36;12.27;;;5.03;;
70707;SDS011;58277;47.316;18.908;2022-10-17T16:00:01;10.00;;;5.60;;
70707;SDS011;58277;47.316;18.908;2022-10-17T16:02:31;9.18;;;5.00;;
70707;SDS011;58277;47.316;18.908;2022-10-17T16:04:54;10.82;;;5.68;;
70707;SDS011;58277;47.316;18.908;2022-10-17T16:07:17;10.10;;;5.82;;